
Distance (Route):
Temperature : 1.0°C
Humidity : 54.0%
Pressure : 0hPa| Receiver | Date | Latitude | Longitude | Direction | Speed | Altitude | Climb | Temperature | Humidity | Pressure | Voltage | Killtimer | Uptime | BKT | XDATA |
|---|---|---|---|---|---|---|---|---|---|---|---|---|---|---|---|
| LZ4TU-5 | 2026-09-04 19:07:25 | 42.80860 | 21.88451 | 197° | 53km/h | 4214m | -13.7m/s | 1.0°C | 54.0% | 0hPa | 0V | 00:00:00 | 00:00:00 | 00:00:00 | |
| LZ4TU-5 | 2026-09-04 19:07:20 | 42.80924 | 21.88478 | 196° | 55km/h | 4284m | -13.8m/s | 0.8°C | 46.4% | 0hPa | 0V | 00:00:00 | 00:00:00 | 00:00:00 | |
| LZ4TU-5 | 2026-09-04 19:07:15 | 42.80989 | 21.88503 | 195° | 51km/h | 4353m | -13.8m/s | 0.3°C | 47.3% | 0hPa | 0V | 00:00:00 | 00:00:00 | 00:00:00 | |
| LZ4TU-5 | 2026-09-04 19:07:10 | 42.81051 | 21.88524 | 195° | 49km/h | 4417m | -13.7m/s | -0.1°C | 46.3% | 0hPa | 0V | 00:00:00 | 00:00:00 | 00:00:00 | |
| LZ4TU-5 | 2026-09-04 19:07:06 | 42.81097 | 21.88538 | 195° | 46km/h | 4474m | -13.7m/s | -0.3°C | 43.3% | 0hPa | 0V | 00:00:00 | 00:00:00 | 00:00:00 | |
| LZ4TU-5 | 2026-09-04 19:07:01 | 42.81152 | 21.88556 | 197° | 44km/h | 4545m | -13.8m/s | -0.7°C | 44.6% | 0hPa | 0V | 00:00:00 | 00:00:00 | 00:00:00 | |
| LZ4TU-5 | 2026-09-04 19:06:56 | 42.81208 | 21.88574 | 191° | 46km/h | 4615m | -13.8m/s | -0.9°C | 37.4% | 0hPa | 0V | 00:00:00 | 00:00:00 | 00:00:00 | |
| LZ4TU-5 | 2026-09-04 19:00:51 | 42.86395 | 21.89359 | 189° | 93km/h | 11080m | -20.9m/s | -47.6°C | 55.6% | 0hPa | 0V | 00:00:00 | 00:00:00 | 00:00:00 | |
| LZ4TU-5 | 2026-09-04 19:00:46 | 42.86512 | 21.89380 | 189° | 93km/h | 11185m | -20.6m/s | -48.6°C | 55.7% | 0hPa | 0V | 00:00:00 | 00:00:00 | 00:00:00 | |
| LZ4TU-5 | 2026-09-04 18:59:42 | 42.88130 | 21.89693 | 194° | 100km/h | 12484m | -21.7m/s | -59.5°C | 25.9% | 0hPa | 0V | 00:00:00 | 00:00:00 | 00:00:00 | |
| LZ4TU-5 | 2026-09-04 18:59:37 | 42.88255 | 21.89739 | 199° | 100km/h | 12584m | -21.0m/s | -60.3°C | 23.0% | 0hPa | 0V | 00:00:00 | 00:00:00 | 00:00:00 | |
| LZ4TU-5 | 2026-09-04 18:58:36 | 42.89543 | 21.90074 | 182° | 73km/h | 13963m | -24.6m/s | -63.7°C | 1.3% | 0hPa | 0V | 00:00:00 | 00:00:00 | 00:00:00 | |
| LZ4TU-5 | 2026-09-04 18:58:31 | 42.89624 | 21.90081 | 192° | 51km/h | 14087m | -24.1m/s | -62.0°C | 0.5% | 0hPa | 0V | 00:00:00 | 00:00:00 | 00:00:00 | |
| LZ4TU-5 | 2026-09-04 18:57:26 | 42.90070 | 21.89837 | 148° | 15km/h | 15782m | -27.8m/s | -57.4°C | 0.0% | 0hPa | 0V | 00:00:00 | 00:00:00 | 00:00:00 | |
| LZ4TU-5 | 2026-09-04 18:57:21 | 42.90084 | 21.89814 | 95° | 22km/h | 15921m | -28.0m/s | -57.5°C | 0.0% | 0hPa | 0V | 00:00:00 | 00:00:00 | 00:00:00 | |
| LZ4TU-5 | 2026-09-04 18:56:05 | 42.90279 | 21.89330 | 109° | 16km/h | 18278m | -33.6m/s | -58.3°C | 0.0% | 0hPa | 0V | 00:00:00 | 00:00:00 | 00:00:00 | |
| LZ4TU-5 | 2026-09-04 18:56:00 | 42.90284 | 21.89295 | 100° | 24km/h | 18451m | -34.2m/s | -57.2°C | 0.0% | 0hPa | 0V | 00:00:00 | 00:00:00 | 00:00:00 | |
| LZ4TU-5 | 2026-09-04 18:54:48 | 42.90293 | 21.89108 | 82° | 4km/h | 21253m | -44.2m/s | -54.0°C | 0.0% | 0hPa | 0V | 00:00:00 | 00:00:00 | 00:00:00 | |
| LZ4TU-5 | 2026-09-04 18:54:43 | 42.90289 | 21.89114 | 306° | 11km/h | 21484m | -45.4m/s | -54.1°C | 0% | 0hPa | 0V | 00:00:00 | 00:00:00 | 00:00:00 | |
| LZ4TU-5 | 2026-09-04 18:53:31 | 42.90366 | 21.89166 | 252° | 16km/h | 25213m | -62.2m/s | -50.4°C | 0.0% | 0hPa | 0V | 00:00:00 | 00:00:00 | 00:00:00 | |
| LZ4TU-5 | 2026-09-04 18:53:27 | 42.90372 | 21.89192 | 276° | 20km/h | 25461m | -63.3m/s | -49.3°C | 0.0% | 0hPa | 0V | 00:00:00 | 00:00:00 | 00:00:00 | |
| LZ4TU-5 | 2026-09-04 18:53:22 | 42.90368 | 21.89224 | 307° | 16km/h | 25773m | -63.7m/s | -49.2°C | 0.0% | 0hPa | 0V | 00:00:00 | 00:00:00 | 00:00:00 | |
| LZ4TU-5 | 2026-09-04 18:53:17 | 42.90359 | 21.89251 | 298° | 18km/h | 26097m | -64.9m/s | -48.4°C | 0.0% | 0hPa | 0V | 00:00:00 | 00:00:00 | 00:00:00 | |
| LZ4TU-5 | 2026-09-04 18:53:12 | 42.90348 | 21.89277 | 323° | 16km/h | 26432m | -67.4m/s | -47.3°C | 0.0% | 0hPa | 0V | 00:00:00 | 00:00:00 | 00:00:00 | |
| LZ4TU-5 | 2026-09-04 18:53:07 | 42.90337 | 21.89293 | 306° | 9km/h | 26775m | -70.2m/s | -46.4°C | 0.0% | 0hPa | 0V | 00:00:00 | 00:00:00 | 00:00:00 | |
| OM5KV | 2026-09-04 18:51:45 | 42.90297 | 21.89411 | 265° | 7km/h | 32828m | 7.5m/s | -37.3°C | 0.0% | 0hPa | 0V | 00:00:00 | 00:00:00 | 00:00:00 | |
| LZ4TU-5 | 2026-09-04 18:51:40 | 42.90282 | 21.89420 | 273° | 9km/h | 32796m | 8.4m/s | -37.2°C | 0.0% | 0hPa | 0V | 00:00:00 | 00:00:00 | 00:00:00 | |
| OM5KV | 2026-09-04 18:51:39 | 42.90283 | 21.89424 | 229° | 16km/h | 32789m | 7.9m/s | -37.2°C | 0.0% | 0hPa | 0V | 00:00:00 | 00:00:00 | 00:00:00 | |
| OM5KV | 2026-09-04 18:51:36 | 42.90295 | 21.89438 | 244° | 18km/h | 32773m | 5.6m/s | -37.2°C | 0.0% | 0hPa | 0V | 00:00:00 | 00:00:00 | 00:00:00 | |
| LZ4TU-5 | 2026-09-04 18:51:35 | 42.90296 | 21.89445 | 286° | 20km/h | 32765m | 7.4m/s | -37.2°C | 0.0% | 0hPa | 0V | 00:00:00 | 00:00:00 | 00:00:00 | |
| OM5KV | 2026-09-04 18:51:33 | 42.90286 | 21.89459 | 326° | 33km/h | 32751m | 5.0m/s | -37.2°C | 0.0% | 0hPa | 0V | 00:00:00 | 00:00:00 | 00:00:00 | |
| OM5KV | 2026-09-04 18:51:29 | 42.90277 | 21.89473 | 202° | 20km/h | 32725m | 7.4m/s | -37.1°C | 0.0% | 0hPa | 0V | 00:00:00 | 00:00:00 | 00:00:00 | |
| OM5KV | 2026-09-04 18:51:22 | 42.90279 | 21.89523 | 313° | 37km/h | 32683m | 4.1m/s | -37.1°C | 0.0% | 0hPa | 0V | 00:00:00 | 00:00:00 | 00:00:00 | |
| OM5KV | 2026-09-04 18:51:15 | 42.90294 | 21.89553 | 259° | 15km/h | 32639m | 7.4m/s | -37.1°C | 0.0% | 0hPa | 0V | 00:00:00 | 00:00:00 | 00:00:00 | |
| OM5KV | 2026-09-04 18:51:09 | 42.90289 | 21.89604 | 213° | 26km/h | 32599m | 7.8m/s | -37.1°C | 0.0% | 0hPa | 0V | 00:00:00 | 00:00:00 | 00:00:00 | |
| OM5KV | 2026-09-04 18:51:04 | 42.90318 | 21.89614 | 230° | 16km/h | 32566m | 5.2m/s | -37.0°C | 0.0% | 0hPa | 0V | 00:00:00 | 00:00:00 | 00:00:00 | |
| OM5KV | 2026-09-04 18:50:39 | 42.90392 | 21.89723 | 237° | 53km/h | 32414m | 7.3m/s | -37.5°C | 0.0% | 0hPa | 0V | 00:00:00 | 00:00:00 | 00:00:00 | |
| LZ4TU-5 | 2026-09-04 18:50:27 | 42.90443 | 21.89753 | 278° | 29km/h | 32342m | 10.1m/s | -37.6°C | 0.0% | 0hPa | 0V | 00:00:00 | 00:00:00 | 00:00:00 | |
| LZ4TU-5 | 2026-09-04 18:50:22 | 42.90421 | 21.89759 | 132° | 18km/h | 32317m | 8.2m/s | -37.8°C | 0.0% | 0hPa | 0V | 00:00:00 | 00:00:00 | 00:00:00 | |
| OM5KV | 2026-09-04 18:50:20 | 42.90439 | 21.89752 | 178° | 57km/h | 32298m | 8.8m/s | -37.8°C | 0.0% | 0hPa | 0V | 00:00:00 | 00:00:00 | 00:00:00 | |
| OM5KV | 2026-09-04 18:49:56 | 42.90437 | 21.89842 | 204° | 37km/h | 32156m | 7.9m/s | -38.1°C | 0.0% | 0hPa | 0V | 00:00:00 | 00:00:00 | 00:00:00 | |
| OM5KV | 2026-09-04 18:49:55 | 42.90446 | 21.89842 | 169° | 37km/h | 32151m | 4.8m/s | -38.2°C | 0.0% | 0hPa | 0V | 00:00:00 | 00:00:00 | 00:00:00 | |
| OM5KV | 2026-09-04 18:49:44 | 42.90410 | 21.89892 | 110° | 20km/h | 32079m | 10.8m/s | -38.3°C | 0.0% | 0hPa | 0V | 00:00:00 | 00:00:00 | 00:00:00 | |
| OM5KV | 2026-09-04 18:49:30 | 42.90369 | 21.89897 | 23° | 29km/h | 31986m | 7.6m/s | -38.8°C | 0.0% | 0hPa | 0V | 00:00:00 | 00:00:00 | 00:00:00 | |
| OM5KV | 2026-09-04 18:49:24 | 42.90351 | 21.89919 | 194° | 31km/h | 31946m | 8.7m/s | -39.2°C | 0.0% | 0hPa | 0V | 00:00:00 | 00:00:00 | 00:00:00 | |
| OM5KV | 2026-09-04 18:49:14 | 42.90353 | 21.89945 | 292° | 7km/h | 31881m | 6.8m/s | -39.3°C | 0.0% | 0hPa | 0V | 00:00:00 | 00:00:00 | 00:00:00 | |
| LZ4TU-5 | 2026-09-04 18:49:10 | 42.90358 | 21.89948 | 218° | 11km/h | 31853m | 6.0m/s | -39.4°C | 0.0% | 0hPa | 0V | 00:00:00 | 00:00:00 | 00:00:00 | |
| LZ4TU-5 | 2026-09-04 18:49:05 | 42.90358 | 21.89974 | 301° | 31km/h | 31822m | 6.3m/s | -39.5°C | 0.0% | 0hPa | 0V | 00:00:00 | 00:00:00 | 00:00:00 | |
| OM5KV | 2026-09-04 18:49:04 | 42.90353 | 21.89983 | 311° | 31km/h | 31816m | 5.7m/s | -39.5°C | 0.0% | 0hPa | 0V | 00:00:00 | 00:00:00 | 00:00:00 | |
| OM5KV | 2026-09-04 18:48:57 | 42.90322 | 21.89998 | 257° | 13km/h | 31769m | 7.4m/s | -39.7°C | 0.0% | 0hPa | 0V | 00:00:00 | 00:00:00 | 00:00:00 | |
| OM5KV | 2026-09-04 18:48:52 | 42.90327 | 21.90029 | 306° | 27km/h | 31734m | 9.2m/s | -39.9°C | 0.0% | 0hPa | 0V | 00:00:00 | 00:00:00 | 00:00:00 | |
| OM5KV | 2026-09-04 18:48:51 | 42.90322 | 21.90035 | 332° | 29km/h | 31727m | 6.8m/s | -39.9°C | 0.0% | 0hPa | 0V | 00:00:00 | 00:00:00 | 00:00:00 | |
| OM5KV | 2026-09-04 18:48:45 | 42.90317 | 21.90028 | 193° | 31km/h | 31691m | 4.8m/s | -40.1°C | 0.0% | 0hPa | 0V | 00:00:00 | 00:00:00 | 00:00:00 | |
| OM5KV | 2026-09-04 18:48:39 | 42.90301 | 21.90067 | 359° | 29km/h | 31656m | 3.4m/s | -40.3°C | 0.0% | 0hPa | 0V | 00:00:00 | 00:00:00 | 00:00:00 | |
| OM5KV | 2026-09-04 18:48:37 | 42.90294 | 21.90062 | 90° | 11km/h | 31641m | 9.2m/s | -40.4°C | 0.0% | 0hPa | 0V | 00:00:00 | 00:00:00 | 00:00:00 | |
| OM5KV | 2026-09-04 18:48:33 | 42.90316 | 21.90065 | 244° | 20km/h | 31617m | 4.5m/s | -40.5°C | 0.0% | 0hPa | 0V | 00:00:00 | 00:00:00 | 00:00:00 | |
| OM5KV | 2026-09-04 18:48:27 | 42.90279 | 21.90084 | 2° | 16km/h | 31576m | 3.6m/s | -40.7°C | 0.0% | 0hPa | 0V | 00:00:00 | 00:00:00 | 00:00:00 | |
| OM5KV | 2026-09-04 18:48:17 | 42.90289 | 21.90124 | 21° | 24km/h | 31510m | 3.1m/s | -41.1°C | 0.0% | 0hPa | 0V | 00:00:00 | 00:00:00 | 00:00:00 | |
| OM5KV | 2026-09-04 18:48:09 | 42.90311 | 21.90178 | 165° | 27km/h | 31462m | 6.2m/s | -41.7°C | 0.0% | 0hPa | 0V | 00:00:00 | 00:00:00 | 00:00:00 | |
| OM5KV | 2026-09-04 18:48:04 | 42.90296 | 21.90173 | 303° | 40km/h | 31428m | 5.0m/s | -41.8°C | 0.0% | 0hPa | 0V | 00:00:00 | 00:00:00 | 00:00:00 | |
| OM5KV | 2026-09-04 18:47:59 | 42.90314 | 21.90209 | 156° | 31km/h | 31397m | 5.9m/s | -42.0°C | 0.0% | 0hPa | 0V | 00:00:00 | 00:00:00 | 00:00:00 | |
| OM5KV | 2026-09-04 18:47:58 | 42.90319 | 21.90202 | 126° | 27km/h | 31393m | 4.1m/s | -42.0°C | 0.0% | 0hPa | 0V | 00:00:00 | 00:00:00 | 00:00:00 | |
| OM5KV | 2026-09-04 18:47:57 | 42.90321 | 21.90195 | 93° | 20km/h | 31387m | 5.8m/s | -42.1°C | 0.0% | 0hPa | 0V | 00:00:00 | 00:00:00 | 00:00:00 | |
| OM5KV | 2026-09-04 18:47:47 | 42.90332 | 21.90223 | 114° | 31km/h | 31322m | 5.7m/s | -42.1°C | 0.0% | 0hPa | 0V | 00:00:00 | 00:00:00 | 00:00:00 | |
| LZ4TU-5 | 2026-09-04 18:47:42 | 42.90319 | 21.90239 | 261° | 47km/h | 31288m | 8.8m/s | -42.2°C | 0.0% | 0hPa | 0V | 00:00:00 | 00:00:00 | 00:00:00 | |
| OM5KV | 2026-09-04 18:47:19 | 42.90367 | 21.90330 | 202° | 13km/h | 31146m | 7.3m/s | -42.6°C | 0.0% | 0hPa | 0V | 00:00:00 | 00:00:00 | 00:00:00 | |
| OM5KV | 2026-09-04 18:47:18 | 42.90372 | 21.90330 | 177° | 27km/h | 31137m | 8.2m/s | -42.6°C | 0.0% | 0hPa | 0V | 00:00:00 | 00:00:00 | 00:00:00 | |
| OM5KV | 2026-09-04 18:46:58 | 42.90409 | 21.90343 | 306° | 24km/h | 31005m | 8.4m/s | -42.9°C | 0.0% | 0hPa | 0V | 00:00:00 | 00:00:00 | 00:00:00 | |
| LZ4TU-5 | 2026-09-04 18:46:24 | 42.90416 | 21.90426 | 320° | 31km/h | 30795m | 6.8m/s | -44.0°C | 0.0% | 0hPa | 0V | 00:00:00 | 00:00:00 | 00:00:00 | |
| LZ4TU-5 | 2026-09-04 18:46:19 | 42.90395 | 21.90439 | 170° | 4km/h | 30766m | 5.7m/s | -44.1°C | 0% | 0hPa | 0V | 00:00:00 | 00:00:00 | 00:00:00 | |
| LZ4TU-5 | 2026-09-04 18:45:07 | 42.90279 | 21.90570 | 353° | 4km/h | 30306m | 5.6m/s | -44.0°C | 0.0% | 0hPa | 0V | 00:00:00 | 00:00:00 | 00:00:00 | |
| LZ4TU-5 | 2026-09-04 18:45:03 | 42.90277 | 21.90569 | 97° | 9km/h | 30282m | 8.1m/s | -44.0°C | 0.0% | 0hPa | 0V | 00:00:00 | 00:00:00 | 00:00:00 | |
| LZ4TU-5 | 2026-09-04 18:43:37 | 42.90183 | 21.90936 | 260° | 22km/h | 29743m | 5.6m/s | -45.1°C | 0.0% | 0hPa | 0V | 00:00:00 | 00:00:00 | 00:00:00 | |
| LZ4TU-5 | 2026-09-04 18:43:33 | 42.90189 | 21.90951 | 18° | 4km/h | 29720m | 7.9m/s | -45.2°C | 0.0% | 0hPa | 0V | 00:00:00 | 00:00:00 | 00:00:00 | |
| LZ4TU-5 | 2026-09-04 18:42:15 | 42.90245 | 21.91159 | 316° | 26km/h | 29244m | 3.1m/s | -45.7°C | 0.0% | 0hPa | 0V | 00:00:00 | 00:00:00 | 00:00:00 | |
| LZ4TU-5 | 2026-09-04 18:42:10 | 42.90256 | 21.91171 | 172° | 31km/h | 29210m | 5.1m/s | -45.8°C | 0% | 0hPa | 0V | 00:00:00 | 00:00:00 | 00:00:00 | |
| LZ4TU-5 | 2026-09-04 18:40:26 | 42.90341 | 21.91302 | 231° | 7km/h | 28538m | 8.4m/s | -45.5°C | 0.0% | 0hPa | 0V | 00:00:00 | 00:00:00 | 00:00:00 | |
| LZ4TU-5 | 2026-09-04 18:40:21 | 42.90362 | 21.91313 | 272° | 13km/h | 28506m | 5.6m/s | -45.4°C | 0.0% | 0hPa | 0V | 00:00:00 | 00:00:00 | 00:00:00 | |
| LZ4TU-5 | 2026-09-04 18:38:45 | 42.90552 | 21.91473 | 135° | 15km/h | 27871m | 5.4m/s | -45.6°C | 0.0% | 0hPa | 0V | 00:00:00 | 00:00:00 | 00:00:00 | |
| LZ4TU-5 | 2026-09-04 18:38:41 | 42.90550 | 21.91470 | 282° | 11km/h | 27845m | 7.7m/s | -45.7°C | 0.0% | 0hPa | 0V | 00:00:00 | 00:00:00 | 00:00:00 | |
| LZ4TU-5 | 2026-09-04 18:37:21 | 42.90778 | 21.91503 | 188° | 7km/h | 27336m | 6.5m/s | -45.5°C | 0.0% | 0hPa | 0V | 00:00:00 | 00:00:00 | 00:00:00 | |
| LZ4TU-5 | 2026-09-04 18:37:17 | 42.90789 | 21.91497 | 123° | 20km/h | 27309m | 8.2m/s | -45.5°C | 0.0% | 0hPa | 0V | 00:00:00 | 00:00:00 | 00:00:00 | |
| LZ4TU-5 | 2026-09-04 18:36:01 | 42.90780 | 21.91372 | 345° | 24km/h | 26839m | 7.7m/s | -46.8°C | 0.0% | 0hPa | 0V | 00:00:00 | 00:00:00 | 00:00:00 | |
| LZ4TU-5 | 2026-09-04 18:35:56 | 42.90758 | 21.91366 | 254° | 15km/h | 26809m | 8.2m/s | -47.1°C | 0% | 0hPa | 0V | 00:00:00 | 00:00:00 | 00:00:00 | |
| LZ4TU-5 | 2026-09-04 18:34:40 | 42.90537 | 21.91722 | 0° | 0km/h | 26336m | 6.0m/s | -48.8°C | 0.0% | 0hPa | 0V | 00:00:00 | 00:00:00 | 00:00:00 | |
| LZ4TU-5 | 2026-09-04 18:34:35 | 42.90543 | 21.91737 | 287° | 11km/h | 26306m | 5.8m/s | -49.1°C | 0.0% | 0hPa | 0V | 00:00:00 | 00:00:00 | 00:00:00 | |
| LZ4TU-5 | 2026-09-04 18:33:21 | 42.90390 | 21.92156 | 306° | 22km/h | 25839m | 5.2m/s | -50.1°C | 0.0% | 0hPa | 0V | 00:00:00 | 00:00:00 | 00:00:00 | |
| LZ4TU-5 | 2026-09-04 18:33:16 | 42.90382 | 21.92169 | 294° | 5km/h | 25811m | 6.2m/s | -50.2°C | 0.0% | 0hPa | 0V | 00:00:00 | 00:00:00 | 00:00:00 | |
| LZ4TU-5 | 2026-09-04 18:32:01 | 42.90395 | 21.92686 | 247° | 57km/h | 25360m | 7.8m/s | -50.7°C | 0.0% | 0hPa | 0V | 00:00:00 | 00:00:00 | 00:00:00 | |
| LZ4TU-5 | 2026-09-04 18:31:57 | 42.90410 | 21.92748 | 238° | 31km/h | 25340m | 8.0m/s | -50.7°C | 0.0% | 0hPa | 0V | 00:00:00 | 00:00:00 | 00:00:00 | |
| LZ4TU-5 | 2026-09-04 18:30:42 | 42.90555 | 21.93075 | 284° | 11km/h | 24874m | 5.7m/s | -52.1°C | 0.0% | 0hPa | 0V | 00:00:00 | 00:00:00 | 00:00:00 | |
| LZ4TU-5 | 2026-09-04 18:30:37 | 42.90575 | 21.93081 | 228° | 9km/h | 24842m | 5.3m/s | -52.3°C | 0.0% | 0hPa | 0V | 00:00:00 | 00:00:00 | 00:00:00 | |
| LZ4TU-5 | 2026-09-04 18:29:23 | 42.90632 | 21.93187 | 304° | 4km/h | 24379m | 5.7m/s | -52.4°C | 0.0% | 0hPa | 0V | 00:00:00 | 00:00:00 | 00:00:00 | |
| LZ4TU-5 | 2026-09-04 18:29:18 | 42.90623 | 21.93199 | 283° | 11km/h | 24345m | 5.0m/s | -52.4°C | 0% | 0hPa | 0V | 00:00:00 | 00:00:00 | 00:00:00 | |
| LZ4TU-5 | 2026-09-04 18:27:56 | 42.90715 | 21.93430 | 154° | 15km/h | 23873m | 6.7m/s | -52.5°C | 0.0% | 0hPa | 0V | 00:00:00 | 00:00:00 | 00:00:00 | |
| LZ4TU-5 | 2026-09-04 18:27:51 | 42.90740 | 21.93435 | 202° | 26km/h | 23837m | 6.8m/s | -52.6°C | 0.0% | 0hPa | 0V | 00:00:00 | 00:00:00 | 00:00:00 | |
| LZ4TU-5 | 2026-09-04 18:26:37 | 42.90815 | 21.93337 | 225° | 13km/h | 23404m | 6.1m/s | -54.2°C | 0.0% | 0hPa | 0V | 00:00:00 | 00:00:00 | 00:00:00 | |
| LZ4TU-5 | 2026-09-04 18:26:32 | 42.90837 | 21.93335 | 148° | 9km/h | 23373m | 5.6m/s | -54.2°C | 0.0% | 0hPa | 0V | 00:00:00 | 00:00:00 | 00:00:00 | |
| LZ4TU-5 | 2026-09-04 18:25:07 | 42.90899 | 21.93274 | 53° | 18km/h | 22882m | 6.3m/s | -53.3°C | 0% | 0hPa | 0V | 00:00:00 | 00:00:00 | 00:00:00 | |
| LZ4TU-5 | 2026-09-04 18:23:46 | 42.90795 | 21.93368 | 283° | 15km/h | 22368m | 5.0m/s | -54.5°C | 0.0% | 0hPa | 0V | 00:00:00 | 00:00:00 | 00:00:00 | |
| LZ4TU-5 | 2026-09-04 18:23:42 | 42.90794 | 21.93379 | 233° | 9km/h | 22348m | 5.8m/s | -54.4°C | 0.0% | 0hPa | 0V | 00:00:00 | 00:00:00 | 00:00:00 | |
| LZ4TU-5 | 2026-09-04 18:22:20 | 42.90959 | 21.93260 | 41° | 20km/h | 21865m | 5.3m/s | -55.2°C | 0.0% | 0hPa | 0V | 00:00:00 | 00:00:00 | 00:00:00 | |
| LZ4TU-5 | 2026-09-04 18:20:52 | 42.90800 | 21.93452 | 181° | 5km/h | 21364m | 6.1m/s | -55.1°C | 0.0% | 0hPa | 0V | 00:00:00 | 00:00:00 | 00:00:00 | |
| LZ4TU-5 | 2026-09-04 18:20:47 | 42.90810 | 21.93456 | 21° | 4km/h | 21334m | 5.5m/s | -55.1°C | 0% | 0hPa | 0V | 00:00:00 | 00:00:00 | 00:00:00 | |
| LZ4TU-5 | 2026-09-04 18:19:25 | 42.90899 | 21.93188 | 93° | 24km/h | 20870m | 6.4m/s | -57.1°C | 0.0% | 0hPa | 0V | 00:00:00 | 00:00:00 | 00:00:00 | |
| LZ4TU-5 | 2026-09-04 18:19:20 | 42.90901 | 21.93159 | 133° | 9km/h | 20841m | 5.4m/s | -57.1°C | 0.0% | 0hPa | 0V | 00:00:00 | 00:00:00 | 00:00:00 | |
| LZ4TU-5 | 2026-09-04 18:17:56 | 42.90959 | 21.92732 | 15° | 27km/h | 20378m | 5.5m/s | -58.1°C | 0.2% | 0hPa | 0V | 00:00:00 | 00:00:00 | 00:00:00 | |
| LZ4TU-5 | 2026-09-04 18:17:51 | 42.90940 | 21.92723 | 95° | 11km/h | 20350m | 4.6m/s | -58.0°C | 0.2% | 0hPa | 0V | 00:00:00 | 00:00:00 | 00:00:00 | |
| LZ4TU-5 | 2026-09-04 18:16:36 | 42.90688 | 21.92764 | 129° | 7km/h | 19917m | 4.6m/s | -57.0°C | 0.5% | 0hPa | 0V | 00:00:00 | 00:00:00 | 00:00:00 | |
| LZ4TU-5 | 2026-09-04 18:16:31 | 42.90701 | 21.92774 | 231° | 22km/h | 19887m | 4.7m/s | -56.9°C | 0% | 0hPa | 0V | 00:00:00 | 00:00:00 | 00:00:00 | |
| LZ4TU-5 | 2026-09-04 18:15:16 | 42.90762 | 21.92506 | 121° | 29km/h | 19454m | 4.4m/s | -57.5°C | 1.1% | 0hPa | 0V | 00:00:00 | 00:00:00 | 00:00:00 | |
| LZ4TU-5 | 2026-09-04 18:15:10 | 42.90770 | 21.92487 | 77° | 15km/h | 19423m | 4.4m/s | -57.4°C | 1.2% | 0hPa | 0V | 00:00:00 | 00:00:00 | 00:00:00 | |
| LZ4TU-5 | 2026-09-04 18:13:54 | 42.90676 | 21.92317 | 190° | 9km/h | 18981m | 6.3m/s | -55.5°C | 1.3% | 0hPa | 0V | 00:00:00 | 00:00:00 | 00:00:00 | |
| LZ4TU-5 | 2026-09-04 18:13:49 | 42.90684 | 21.92330 | 191° | 9km/h | 18953m | 6.0m/s | -55.7°C | 1.4% | 0hPa | 0V | 00:00:00 | 00:00:00 | 00:00:00 | |
| LZ4TU-5 | 2026-09-04 18:12:35 | 42.90882 | 21.91910 | 114° | 26km/h | 18549m | 4.3m/s | -56.9°C | 1.6% | 0hPa | 0V | 00:00:00 | 00:00:00 | 00:00:00 | |
| LZ4TU-5 | 2026-09-04 18:12:30 | 42.90884 | 21.91868 | 82° | 24km/h | 18523m | 3.3m/s | -56.9°C | 0% | 0hPa | 0V | 00:00:00 | 00:00:00 | 00:00:00 | |
| LZ4TU-5 | 2026-09-04 18:11:16 | 42.90900 | 21.91450 | 197° | 7km/h | 18133m | 5.2m/s | -58.6°C | 1.6% | 0hPa | 0V | 00:00:00 | 00:00:00 | 00:00:00 | |
| LZ4TU-5 | 2026-09-04 18:11:11 | 42.90908 | 21.91439 | 124° | 9km/h | 18105m | 6.6m/s | -59.0°C | 1.7% | 0hPa | 0V | 00:00:00 | 00:00:00 | 00:00:00 | |
| LZ4TU-5 | 2026-09-04 18:10:03 | 42.90903 | 21.91086 | 61° | 7km/h | 17721m | 6.1m/s | -60.6°C | 2.2% | 0hPa | 0V | 00:00:00 | 00:00:00 | 00:00:00 | |
| LZ4TU-5 | 2026-09-04 18:09:59 | 42.90908 | 21.91069 | 120° | 20km/h | 17701m | 4.0m/s | -60.7°C | 2.3% | 0hPa | 0V | 00:00:00 | 00:00:00 | 00:00:00 | |
| LZ4TU-5 | 2026-09-04 18:08:45 | 42.91068 | 21.90936 | 171° | 16km/h | 17303m | 5.7m/s | -59.6°C | 2.8% | 0hPa | 0V | 00:00:00 | 00:00:00 | 00:00:00 | |
| LZ4TU-5 | 2026-09-04 18:08:40 | 42.91093 | 21.90929 | 183° | 22km/h | 17276m | 6.1m/s | -59.6°C | 2.8% | 0hPa | 0V | 00:00:00 | 00:00:00 | 00:00:00 | |
| LZ4TU-5 | 2026-09-04 18:07:20 | 42.91485 | 21.90458 | 121° | 24km/h | 16868m | 5.0m/s | -60.0°C | 3.0% | 0hPa | 0V | 00:00:00 | 00:00:00 | 00:00:00 | |
| LZ4TU-5 | 2026-09-04 18:05:41 | 42.92028 | 21.89487 | 118° | 33km/h | 16332m | 4.2m/s | -59.7°C | 3.6% | 0hPa | 0V | 00:00:00 | 00:00:00 | 00:00:00 | |
| LZ4TU-5 | 2026-09-04 18:05:37 | 42.92039 | 21.89444 | 98° | 37km/h | 16312m | 4.8m/s | -59.9°C | 3.8% | 0hPa | 0V | 00:00:00 | 00:00:00 | 00:00:00 | |
| LZ4TU-5 | 2026-09-04 18:04:05 | 42.91923 | 21.88678 | 28° | 40km/h | 15801m | 5.9m/s | -56.3°C | 6.3% | 0hPa | 0V | 00:00:00 | 00:00:00 | 00:00:00 | |
| LZ4TU-5 | 2026-09-04 18:04:00 | 42.91905 | 21.88628 | 102° | 24km/h | 15764m | 6.2m/s | -56.0°C | 0% | 0hPa | 0V | 00:00:00 | 00:00:00 | 00:00:00 | |
| LZ4TU-5 | 2026-09-04 18:02:35 | 42.92193 | 21.88090 | 124° | 37km/h | 15228m | 3.7m/s | -57.7°C | 11.2% | 0hPa | 0V | 00:00:00 | 00:00:00 | 00:00:00 | |
| LZ4TU-5 | 2026-09-04 18:02:30 | 42.92232 | 21.88046 | 146° | 51km/h | 15207m | 4.2m/s | -58.0°C | 11.5% | 0hPa | 0V | 00:00:00 | 00:00:00 | 00:00:00 | |
| LZ4TU-5 | 2026-09-04 18:01:16 | 42.92978 | 21.87395 | 156° | 46km/h | 14876m | 8.5m/s | -60.4°C | 17.1% | 0hPa | 0V | 00:00:00 | 00:00:00 | 00:00:00 | |
| LZ4TU-5 | 2026-09-04 18:01:12 | 42.93001 | 21.87391 | 154° | 13km/h | 14858m | 3.9m/s | -60.3°C | 17.4% | 0hPa | 0V | 00:00:00 | 00:00:00 | 00:00:00 | |
| LZ4TU-5 | 2026-09-04 17:59:58 | 42.93835 | 21.86900 | 173° | 24km/h | 14423m | 5.5m/s | -62.6°C | 25.6% | 0hPa | 0V | 00:00:00 | 00:00:00 | 00:00:00 | |
| LZ4TU-5 | 2026-09-04 17:59:54 | 42.93864 | 21.86899 | 172° | 35km/h | 14402m | 5.5m/s | -62.4°C | 26.0% | 0hPa | 0V | 00:00:00 | 00:00:00 | 00:00:00 | |
| LZ4TU-5 | 2026-09-04 17:58:23 | 42.94864 | 21.87247 | 178° | 71km/h | 13851m | 5.1m/s | -63.6°C | 39.8% | 0hPa | 0V | 00:00:00 | 00:00:00 | 00:00:00 | |
| LZ4TU-5 | 2026-09-04 17:58:18 | 42.94968 | 21.87248 | 174° | 78km/h | 13825m | 6.0m/s | -63.3°C | 40.6% | 0hPa | 0V | 00:00:00 | 00:00:00 | 00:00:00 | |
| LZ4TU-5 | 2026-09-04 17:57:04 | 42.96161 | 21.87175 | 189° | 73km/h | 13426m | 3.7m/s | -62.4°C | 50.7% | 0hPa | 0V | 00:00:00 | 00:00:00 | 00:00:00 | |
| LZ4TU-5 | 2026-09-04 17:56:59 | 42.96236 | 21.87197 | 203° | 53km/h | 13402m | 6.2m/s | -62.7°C | 50.9% | 0hPa | 0V | 00:00:00 | 00:00:00 | 00:00:00 | |
| LZ4TU-5 | 2026-09-04 17:55:45 | 42.97768 | 21.87789 | 193° | 104km/h | 13048m | 4.6m/s | -64.2°C | 50.0% | 0hPa | 0V | 00:00:00 | 00:00:00 | 00:00:00 | |
| LZ4TU-5 | 2026-09-04 17:55:40 | 42.97905 | 21.87840 | 200° | 108km/h | 13024m | 5.0m/s | -64.2°C | 50.2% | 0hPa | 0V | 00:00:00 | 00:00:00 | 00:00:00 | |
| LZ4TU-5 | 2026-09-04 17:54:25 | 42.99811 | 21.88375 | 186° | 97km/h | 12648m | 6.7m/s | -61.3°C | 52.4% | 0hPa | 0V | 00:00:00 | 00:00:00 | 00:00:00 | |
| LZ4TU-5 | 2026-09-04 17:54:20 | 42.99933 | 21.88396 | 190° | 106km/h | 12621m | 5.2m/s | -61.1°C | 52.6% | 0hPa | 0V | 00:00:00 | 00:00:00 | 00:00:00 | |
| LZ4TU-5 | 2026-09-04 17:53:06 | 43.01822 | 21.88823 | 199° | 104km/h | 12231m | 5.8m/s | -58.1°C | 51.8% | 0hPa | 0V | 00:00:00 | 00:00:00 | 00:00:00 | |
| LZ4TU-5 | 2026-09-04 17:53:01 | 43.01945 | 21.88847 | 189° | 102km/h | 12202m | 5.9m/s | -57.9°C | 51.4% | 0hPa | 0V | 00:00:00 | 00:00:00 | 00:00:00 | |
| LZ4TU-5 | 2026-09-04 17:51:45 | 43.03973 | 21.89255 | 189° | 104km/h | 11766m | 5.4m/s | -54.1°C | 47.0% | 0hPa | 0V | 00:00:00 | 00:00:00 | 00:00:00 | |
| LZ4TU-5 | 2026-09-04 17:51:41 | 43.04080 | 21.89284 | 192° | 113km/h | 11743m | 4.4m/s | -53.9°C | 46.5% | 0hPa | 0V | 00:00:00 | 00:00:00 | 00:00:00 | |
| LZ4TU-5 | 2026-09-04 17:50:30 | 43.05946 | 21.89596 | 182° | 93km/h | 11353m | 4.8m/s | -50.7°C | 49.0% | 0hPa | 0V | 00:00:00 | 00:00:00 | 00:00:00 | |
| LZ4TU-5 | 2026-09-04 17:50:25 | 43.06080 | 21.89627 | 195° | 111km/h | 11325m | 3.9m/s | -50.4°C | 51.4% | 0hPa | 0V | 00:00:00 | 00:00:00 | 00:00:00 | |
| LZ4TU-5 | 2026-09-04 17:49:11 | 43.07874 | 21.89999 | 191° | 95km/h | 10939m | 6.0m/s | -47.1°C | 40.2% | 0hPa | 0V | 00:00:00 | 00:00:00 | 00:00:00 | |
| LZ4TU-5 | 2026-09-04 17:49:06 | 43.07990 | 21.90016 | 189° | 91km/h | 10916m | 4.3m/s | -46.9°C | 0% | 0hPa | 0V | 00:00:00 | 00:00:00 | 00:00:00 | |
| LZ4TU-5 | 2026-09-04 17:47:52 | 43.09724 | 21.90430 | 189° | 91km/h | 10536m | 4.9m/s | -43.8°C | 45.9% | 0hPa | 0V | 00:00:00 | 00:00:00 | 00:00:00 | |
| LZ4TU-5 | 2026-09-04 17:47:47 | 43.09842 | 21.90452 | 196° | 89km/h | 10511m | 5.5m/s | -43.6°C | 46.5% | 0hPa | 0V | 00:00:00 | 00:00:00 | 00:00:00 | |
| LZ4TU-5 | 2026-09-04 17:46:31 | 43.11477 | 21.90836 | 196° | 77km/h | 10121m | 5.4m/s | -40.4°C | 42.3% | 0hPa | 0V | 00:00:00 | 00:00:00 | 00:00:00 | |
| LZ4TU-5 | 2026-09-04 17:46:26 | 43.11577 | 21.90848 | 178° | 89km/h | 10097m | 3.7m/s | -40.1°C | 41.7% | 0hPa | 0V | 00:00:00 | 00:00:00 | 00:00:00 | |
| LZ4TU-5 | 2026-09-04 17:45:13 | 43.13064 | 21.91041 | 182° | 78km/h | 9732m | 5.0m/s | -37.2°C | 41.8% | 0hPa | 0V | 00:00:00 | 00:00:00 | 00:00:00 | |
| LZ4TU-5 | 2026-09-04 17:45:08 | 43.13162 | 21.91036 | 180° | 71km/h | 9708m | 4.0m/s | -37.0°C | 41.5% | 0hPa | 0V | 00:00:00 | 00:00:00 | 00:00:00 | |
| LZ4TU-5 | 2026-09-04 17:43:54 | 43.14436 | 21.91179 | 190° | 71km/h | 9324m | 5.7m/s | -33.7°C | 33.8% | 0hPa | 0V | 00:00:00 | 00:00:00 | 00:00:00 | |
| LZ4TU-5 | 2026-09-04 17:43:49 | 43.14530 | 21.91172 | 168° | 60km/h | 9297m | 5.2m/s | -33.5°C | 33.9% | 0hPa | 0V | 00:00:00 | 00:00:00 | 00:00:00 | |
| LZ4TU-5 | 2026-09-04 17:42:34 | 43.15811 | 21.91180 | 176° | 86km/h | 8911m | 4.2m/s | -30.1°C | 34.9% | 0hPa | 0V | 00:00:00 | 00:00:00 | 00:00:00 | |
| LZ4TU-5 | 2026-09-04 17:42:29 | 43.15904 | 21.91187 | 189° | 57km/h | 8890m | 3.6m/s | -29.9°C | 0% | 0hPa | 0V | 00:00:00 | 00:00:00 | 00:00:00 | |
| LZ4TU-5 | 2026-09-04 17:41:15 | 43.17086 | 21.91213 | 185° | 58km/h | 8484m | 4.9m/s | -26.8°C | 43.9% | 0hPa | 0V | 00:00:00 | 00:00:00 | 00:00:00 | |
| LZ4TU-5 | 2026-09-04 17:41:10 | 43.17150 | 21.91200 | 175° | 44km/h | 8449m | 6.2m/s | -26.5°C | 44.3% | 0hPa | 0V | 00:00:00 | 00:00:00 | 00:00:00 | |
| LZ4TU-5 | 2026-09-04 17:39:55 | 43.18203 | 21.91212 | 174° | 53km/h | 8045m | 7.5m/s | -23.1°C | 40.1% | 0hPa | 0V | 00:00:00 | 00:00:00 | 00:00:00 | |
| LZ4TU-5 | 2026-09-04 17:39:51 | 43.18252 | 21.91195 | 185° | 51km/h | 8023m | 6.0m/s | -22.8°C | 38.5% | 0hPa | 0V | 00:00:00 | 00:00:00 | 00:00:00 | |
| LZ4TU-5 | 2026-09-04 17:38:36 | 43.19301 | 21.91262 | 178° | 66km/h | 7627m | 4.4m/s | -20.3°C | 47.1% | 0hPa | 0V | 00:00:00 | 00:00:00 | 00:00:00 | |
| LZ4TU-5 | 2026-09-04 17:38:31 | 43.19361 | 21.91262 | 181° | 46km/h | 7604m | 4.0m/s | -20.1°C | 0% | 0hPa | 0V | 00:00:00 | 00:00:00 | 00:00:00 | |
| LZ4TU-5 | 2026-09-04 17:36:36 | 43.21064 | 21.91147 | 186° | 47km/h | 7016m | 6.7m/s | -15.7°C | 45.0% | 0hPa | 0V | 00:00:00 | 00:00:00 | 00:00:00 | |
| LZ4TU-5 | 2026-09-04 17:36:31 | 43.21129 | 21.91154 | 169° | 58km/h | 6989m | 4.4m/s | -15.6°C | 44.6% | 0hPa | 0V | 00:00:00 | 00:00:00 | 00:00:00 | |
| LZ4TU-5 | 2026-09-04 17:35:24 | 43.22096 | 21.91180 | 164° | 37km/h | 6663m | 5.0m/s | -13.1°C | 46.8% | 0hPa | 0V | 00:00:00 | 00:00:00 | 00:00:00 | |
| LZ4TU-5 | 2026-09-04 17:35:19 | 43.22154 | 21.91190 | 193° | 66km/h | 6640m | 5.1m/s | -13.0°C | 47.4% | 0hPa | 0V | 00:00:00 | 00:00:00 | 00:00:00 | |
| LZ4TU-5 | 2026-09-04 17:34:11 | 43.23042 | 21.91323 | 181° | 73km/h | 6299m | 5.6m/s | -10.2°C | 43.9% | 0hPa | 0V | 00:00:00 | 00:00:00 | 00:00:00 | |
| LZ4TU-5 | 2026-09-04 17:34:06 | 43.23115 | 21.91333 | 188° | 37km/h | 6267m | 7.5m/s | -10.0°C | 0% | 0hPa | 0V | 00:00:00 | 00:00:00 | 00:00:00 | |
| LZ4TU-5 | 2026-09-04 17:32:53 | 43.24065 | 21.91449 | 193° | 46km/h | 5927m | 4.5m/s | -7.7°C | 45.9% | 0hPa | 0V | 00:00:00 | 00:00:00 | 00:00:00 | |
| LZ4TU-5 | 2026-09-04 17:32:49 | 43.24114 | 21.91446 | 180° | 51km/h | 5909m | 4.4m/s | -7.6°C | 45.7% | 0hPa | 0V | 00:00:00 | 00:00:00 | 00:00:00 | |
| LZ4TU-5 | 2026-09-04 17:31:44 | 43.25013 | 21.91654 | 208° | 73km/h | 5604m | 6.1m/s | -6.2°C | 55.4% | 0hPa | 0V | 00:00:00 | 00:00:00 | 00:00:00 | |
| LZ4TU-5 | 2026-09-04 17:31:39 | 43.25084 | 21.91699 | 179° | 58km/h | 5583m | 6.0m/s | -6.1°C | 55.8% | 0hPa | 0V | 00:00:00 | 00:00:00 | 00:00:00 | |
| LZ4TU-5 | 2026-09-04 17:30:37 | 43.25934 | 21.91784 | 195° | 55km/h | 5290m | 6.4m/s | -5.3°C | 41.4% | 0hPa | 0V | 00:00:00 | 00:00:00 | 00:00:00 | |
| LZ4TU-5 | 2026-09-04 17:30:33 | 43.25981 | 21.91812 | 198° | 38km/h | 5276m | 4.1m/s | -5.2°C | 41.2% | 0hPa | 0V | 00:00:00 | 00:00:00 | 00:00:00 | |
| LZ4TU-5 | 2026-09-04 17:29:31 | 43.26690 | 21.91696 | 185° | 44km/h | 4962m | 5.8m/s | -4.2°C | 58.3% | 0hPa | 0V | 00:00:00 | 00:00:00 | 00:00:00 | |
| LZ4TU-5 | 2026-09-04 17:29:26 | 43.26737 | 21.91683 | 149° | 26km/h | 4938m | 3.2m/s | -4.0°C | 58.2% | 0hPa | 0V | 00:00:00 | 00:00:00 | 00:00:00 | |
| LZ4TU-5 | 2026-09-04 17:28:25 | 43.27397 | 21.91666 | 189° | 53km/h | 4633m | 6.0m/s | -2.2°C | 52.8% | 0hPa | 0V | 00:00:00 | 00:00:00 | 00:00:00 | |
| LZ4TU-5 | 2026-09-04 17:28:21 | 43.27456 | 21.91684 | 193° | 47km/h | 4611m | 4.7m/s | -2.1°C | 43.5% | 0hPa | 0V | 00:00:00 | 00:00:00 | 00:00:00 | |
| LZ4TU-5 | 2026-09-04 17:27:19 | 43.28228 | 21.91821 | 198° | 37km/h | 4232m | 6.8m/s | -0.0°C | 59.2% | 0hPa | 0V | 00:00:00 | 00:00:00 | 00:00:00 | |
| LZ4TU-5 | 2026-09-04 17:27:14 | 43.28291 | 21.91836 | 180° | 53km/h | 4202m | 6.7m/s | 0.2°C | 59.0% | 0hPa | 0V | 00:00:00 | 00:00:00 | 00:00:00 | |
| LZ4TU-5 | 2026-09-04 17:26:13 | 43.29002 | 21.92023 | 181° | 47km/h | 3800m | 6.7m/s | 2.5°C | 35.8% | 0hPa | 0V | 00:00:00 | 00:00:00 | 00:00:00 | |
| LZ4TU-5 | 2026-09-04 17:26:08 | 43.29047 | 21.92030 | 196° | 42km/h | 3769m | 5.6m/s | 2.7°C | 34.7% | 0hPa | 0V | 00:00:00 | 00:00:00 | 00:00:00 | |
| LZ4TU-5 | 2026-09-04 17:25:07 | 43.29601 | 21.92019 | 167° | 35km/h | 3379m | 6.4m/s | 5.0°C | 33.9% | 0hPa | 0V | 00:00:00 | 00:00:00 | 00:00:00 | |
| LZ4TU-5 | 2026-09-04 17:25:03 | 43.29630 | 21.92016 | 186° | 33km/h | 3355m | 5.8m/s | 5.2°C | 33.2% | 0hPa | 0V | 00:00:00 | 00:00:00 | 00:00:00 | |
| LZ4TU-5 | 2026-09-04 17:24:57 | 43.29683 | 21.92006 | 180° | 35km/h | 3319m | 6.2m/s | 5.4°C | 28.3% | 0hPa | 0V | 00:00:00 | 00:00:00 | 00:00:00 | |
| LZ4TU-5 | 2026-09-04 17:24:44 | 43.29794 | 21.91983 | 181° | 35km/h | 3239m | 6.3m/s | 5.9°C | 25.6% | 0hPa | 0V | 00:00:00 | 00:00:00 | 00:00:00 | |
| LZ4TU-5 | 2026-09-04 17:24:40 | 43.29826 | 21.91973 | 165° | 29km/h | 3218m | 5.5m/s | 6.1°C | 27.0% | 0hPa | 0V | 00:00:00 | 00:00:00 | 00:00:00 |